createdAt,value
2018-02-16T00:02:10.529Z,78.97
2018-02-16T00:04:53.586Z,81.20
2018-02-16T00:10:08.114Z,79.03
2018-02-16T00:12:39.043Z,76.15
2018-02-16T00:17:44.833Z,76.70
2018-02-16T00:20:23.480Z,65.43
2018-02-16T00:22:51.087Z,70.80
2018-02-16T00:25:18.747Z,63.40
2018-02-16T00:27:47.196Z,86.30
2018-02-16T00:30:15.532Z,76.60
2018-02-16T00:32:43.092Z,84.70
2018-02-16T00:35:15.817Z,66.35
2018-02-16T00:37:43.709Z,71.62
2018-02-16T00:40:15.215Z,70.18
2018-02-16T00:42:43.706Z,78.00
2018-02-16T00:45:11.246Z,68.03
2018-02-16T00:47:40.426Z,76.87
2018-02-16T00:50:08.901Z,68.80
2018-02-16T00:52:36.565Z,62.40
2018-02-16T00:55:04.599Z,68.55
2018-02-16T00:57:32.889Z,71.70
2018-02-16T01:00:00.499Z,65.25
2018-02-16T01:02:28.278Z,56.45
2018-02-16T01:04:55.849Z,67.85
2018-02-16T01:07:23.991Z,103.93
2018-02-16T01:09:52.399Z,74.80
2018-02-16T01:12:20.766Z,79.85
2018-02-16T01:14:51.822Z,83.87
2018-02-16T01:17:20.181Z,66.57
2018-02-16T01:19:48.377Z,57.58
2018-02-16T01:22:16.671Z,71.62
2018-02-16T01:24:49.430Z,77.70
2018-02-16T01:27:18.567Z,71.53
2018-02-16T01:29:46.138Z,70.57
2018-02-16T01:32:15.481Z,68.68
2018-02-16T01:34:44.277Z,69.45
2018-02-16T01:37:12.677Z,77.35
2018-02-16T01:39:41.941Z,64.00
2018-02-16T01:42:09.514Z,72.37
2018-02-16T01:44:37.847Z,81.28
2018-02-16T01:47:06.777Z,103.82
2018-02-16T01:49:47.357Z,61.08
2018-02-16T01:52:14.945Z,64.32
2018-02-16T01:54:43.265Z,63.30
2018-02-16T01:57:12.138Z,57.22
2018-02-16T01:59:40.878Z,36.40
2018-02-16T02:02:08.501Z,32.05
2018-02-16T02:04:36.864Z,29.70
2018-02-16T02:07:05.304Z,28.55
2018-02-16T02:09:32.917Z,44.00
2018-02-16T02:12:03.880Z,46.80
2018-02-16T02:14:32.236Z,43.92
2018-02-16T02:17:02.683Z,47.15
2018-02-16T02:19:36.221Z,45.05
2018-02-16T02:22:04.524Z,64.72
2018-02-16T02:24:32.470Z,47.13
2018-02-16T02:27:00.041Z,47.75
2018-02-16T02:29:27.658Z,37.92
2018-02-16T02:31:55.217Z,39.53
2018-02-16T02:34:26.618Z,36.08
2018-02-16T02:36:54.212Z,42.00
2018-02-16T02:39:21.924Z,36.90
2018-02-16T02:41:53.066Z,42.92
2018-02-16T02:44:20.638Z,46.70
2018-02-16T02:46:50.314Z,46.37
2018-02-16T02:49:17.885Z,43.17
2018-02-16T02:51:45.451Z,48.10
2018-02-16T02:54:13.044Z,38.50
2018-02-16T02:56:41.375Z,46.83
2018-02-16T02:59:09.720Z,36.72
2018-02-16T03:01:38.084Z,56.00
2018-02-16T03:04:07.300Z,44.17
2018-02-16T03:06:36.883Z,43.42
2018-02-16T03:09:06.114Z,42.38
2018-02-16T03:11:34.653Z,39.55
2018-02-16T03:14:04.425Z,51.05
2018-02-16T03:16:34.588Z,45.70
2018-02-16T03:19:02.208Z,31.02
2018-02-16T03:21:30.143Z,35.45
2018-02-16T03:23:58.530Z,37.88
2018-02-16T03:26:26.930Z,39.05
2018-02-16T03:28:54.533Z,38.10
2018-02-16T03:31:23.008Z,46.90
2018-02-16T03:33:51.392Z,34.78
2018-02-16T03:36:20.801Z,36.47
2018-02-16T03:38:50.052Z,44.20
2018-02-16T03:41:19.286Z,28.62
2018-02-16T03:43:47.631Z,31.65
2018-02-16T03:46:15.246Z,30.02
2018-02-16T03:48:43.594Z,29.87
2018-02-16T03:51:11.191Z,32.72
2018-02-16T03:53:40.802Z,31.85
2018-02-16T03:56:08.365Z,25.43
2018-02-16T03:58:35.921Z,35.08
2018-02-16T04:01:05.320Z,57.17
2018-02-16T04:03:32.944Z,29.65
2018-02-16T04:06:00.575Z,27.00
2018-02-16T04:08:28.201Z,33.72
2018-02-16T04:10:56.504Z,29.83
2018-02-16T04:13:24.555Z,27.55
2018-02-16T04:15:52.908Z,22.52
2018-02-16T04:18:20.883Z,20.65
2018-02-16T04:20:50.025Z,26.02
2018-02-16T04:23:20.864Z,23.48
2018-02-16T04:25:48.471Z,20.23
2018-02-16T04:28:16.047Z,15.45
2018-02-16T04:30:44.447Z,14.50
2018-02-16T04:33:12.460Z,19.05
2018-02-16T04:35:40.116Z,22.37
2018-02-16T04:38:08.132Z,21.55
2018-02-16T04:40:38.354Z,19.90
2018-02-16T04:43:06.042Z,16.92
2018-02-16T04:45:39.825Z,25.88
2018-02-16T04:48:07.366Z,19.40
2018-02-16T04:50:36.627Z,23.08
2018-02-16T04:53:06.039Z,22.20
2018-02-16T04:55:33.608Z,16.20
2018-02-16T04:58:01.640Z,21.10
2018-02-16T05:00:32.034Z,19.43
2018-02-16T05:02:59.694Z,14.43
2018-02-16T05:05:27.244Z,14.30
2018-02-16T05:07:55.280Z,17.75
2018-02-16T05:10:22.815Z,17.23
2018-02-16T05:12:50.485Z,16.07
2018-02-16T05:15:22.242Z,12.70
2018-02-16T05:17:49.790Z,13.85
2018-02-16T05:20:18.357Z,15.10
2018-02-16T05:22:45.936Z,14.02
2018-02-16T05:25:13.570Z,9.75
2018-02-16T05:27:41.865Z,10.38
2018-02-16T05:32:48.829Z,9.57
2018-02-16T05:35:30.830Z,8.68
2018-02-16T05:38:06.852Z,9.63
2018-02-16T05:40:35.709Z,9.38
2018-02-16T05:43:10.181Z,9.23
2018-02-16T05:45:39.102Z,8.55
2018-02-16T05:48:17.817Z,8.30
2018-02-16T05:50:46.790Z,8.20
2018-02-16T05:53:16.011Z,6.60
2018-02-16T05:55:45.291Z,6.57
2018-02-16T05:58:12.898Z,4.47
2018-02-16T06:00:48.123Z,7.80
2018-02-16T06:03:15.690Z,8.13
2018-02-16T06:05:49.924Z,5.15
2018-02-16T06:08:18.687Z,5.25
2018-02-16T06:10:48.046Z,4.68
2018-02-16T06:13:17.880Z,5.12
2018-02-16T06:15:46.703Z,5.43
2018-02-16T06:18:15.011Z,6.78
2018-02-16T06:20:51.082Z,6.55
2018-02-16T06:23:21.183Z,4.87
2018-02-16T06:25:51.473Z,10.40
2018-02-16T06:28:19.591Z,6.65
2018-02-16T06:30:48.967Z,7.10
2018-02-16T06:33:18.688Z,6.72
2018-02-16T06:35:46.346Z,8.77
2018-02-16T06:38:17.262Z,7.78
2018-02-16T06:40:44.876Z,6.10
2018-02-16T06:43:12.931Z,13.23
2018-02-16T06:45:40.935Z,12.95
2018-02-16T06:48:10.581Z,13.43
2018-02-16T06:50:38.187Z,9.85
2018-02-16T06:53:06.820Z,8.98
2018-02-16T06:55:36.493Z,12.40
2018-02-16T06:58:04.055Z,7.85
2018-02-16T07:00:34.636Z,17.33
2018-02-16T07:03:02.284Z,18.65
2018-02-16T07:05:30.675Z,15.23
2018-02-16T07:10:41.602Z,14.68
2018-02-16T07:13:10.080Z,12.07
2018-02-16T07:15:39.100Z,20.25
2018-02-16T07:18:08.753Z,19.48
2018-02-16T07:20:41.523Z,11.38
2018-02-16T07:25:51.144Z,11.10
2018-02-16T07:28:28.894Z,12.85
2018-02-16T07:30:56.547Z,13.20
2018-02-16T07:33:25.481Z,25.17
2018-02-16T07:35:54.049Z,17.80
2018-02-16T07:38:26.605Z,14.18
2018-02-16T07:40:55.926Z,17.15
2018-02-16T07:43:27.800Z,17.00
2018-02-16T07:45:57.469Z,20.85
2018-02-16T07:48:28.424Z,20.58
2018-02-16T07:50:56.400Z,19.50
2018-02-16T07:53:25.984Z,23.02
2018-02-16T07:55:58.413Z,18.37
2018-02-16T07:58:26.042Z,18.75
2018-02-16T08:00:54.105Z,12.05
2018-02-16T08:03:22.486Z,12.30
2018-02-16T08:05:50.079Z,13.93
2018-02-16T08:08:19.144Z,12.18
2018-02-16T08:10:49.807Z,7.25
2018-02-16T08:13:19.941Z,8.07
2018-02-16T08:15:47.544Z,8.52
2018-02-16T08:18:15.163Z,10.57
2018-02-16T08:20:43.671Z,16.25
2018-02-16T08:23:13.552Z,10.13
2018-02-16T08:25:42.770Z,13.93
2018-02-16T08:28:11.148Z,14.77
2018-02-16T08:30:42.432Z,11.05
2018-02-16T08:33:10.831Z,13.60
2018-02-16T08:35:38.427Z,7.85
2018-02-16T08:38:08.707Z,10.07
2018-02-16T08:40:38.139Z,7.28
2018-02-16T08:43:09.059Z,9.23
2018-02-16T08:45:39.809Z,6.95
2018-02-16T08:48:07.494Z,5.90
2018-02-16T08:50:35.929Z,7.37
2018-02-16T08:53:06.189Z,6.87
2018-02-16T08:55:40.899Z,6.87
2018-02-16T08:58:09.573Z,6.68
2018-02-16T09:00:43.497Z,7.50
2018-02-16T09:03:14.319Z,5.93
2018-02-16T09:05:43.279Z,7.93
2018-02-16T09:08:10.962Z,7.30
2018-02-16T09:10:39.358Z,7.00
2018-02-16T09:13:08.102Z,10.27
2018-02-16T09:15:36.063Z,8.88
2018-02-16T09:18:05.379Z,8.60
2018-02-16T09:20:35.961Z,8.73
2018-02-16T09:23:06.897Z,9.55
2018-02-16T09:25:37.008Z,10.40
2018-02-16T09:28:05.745Z,13.73
2018-02-16T09:30:34.052Z,28.55
2018-02-16T09:33:03.346Z,11.80
2018-02-16T09:35:32.814Z,14.38
2018-02-16T09:38:02.915Z,12.40
2018-02-16T09:40:40.507Z,8.70
2018-02-16T09:43:08.082Z,9.35
2018-02-16T09:45:35.572Z,9.48
2018-02-16T09:48:05.013Z,8.75
2018-02-16T09:50:32.507Z,11.95
2018-02-16T09:53:00.832Z,8.32
2018-02-16T09:55:28.825Z,7.17
2018-02-16T09:57:57.865Z,10.63
2018-02-16T10:00:28.473Z,15.30
2018-02-16T10:02:56.009Z,11.75
2018-02-16T10:05:24.388Z,10.33
2018-02-16T10:07:51.958Z,13.20
2018-02-16T10:10:20.463Z,6.70
2018-02-16T10:12:51.091Z,3.70
2018-02-16T10:18:00.041Z,11.00
2018-02-16T10:20:30.246Z,21.53
2018-02-16T10:22:57.856Z,37.10
2018-02-16T10:25:26.135Z,11.48
2018-02-16T10:27:56.299Z,30.90
2018-02-16T10:30:25.180Z,25.50
2018-02-16T10:32:52.769Z,10.60
2018-02-16T10:35:21.960Z,14.10
2018-02-16T10:37:55.098Z,10.75
2018-02-16T10:43:18.534Z,5.20
2018-02-16T10:45:49.010Z,6.43
2018-02-16T10:48:17.211Z,3.17
2018-02-16T10:50:44.825Z,3.00
2018-02-16T10:53:12.461Z,2.93
2018-02-16T10:55:41.410Z,1.10
2018-02-16T10:58:14.816Z,2.47
2018-02-16T11:00:49.669Z,0.80
2018-02-16T11:03:24.040Z,1.62
2018-02-16T11:05:53.541Z,1.23
2018-02-16T11:08:27.650Z,1.37
2018-02-16T11:10:56.190Z,2.83
2018-02-16T11:13:26.505Z,0.60
2018-02-16T11:15:55.954Z,0.60
2018-02-16T11:18:30.984Z,1.48
2018-02-16T11:23:33.672Z,1.05
2018-02-16T11:26:01.357Z,1.00
2018-02-16T11:28:31.580Z,7.75
2018-02-16T11:31:02.994Z,5.32
2018-02-16T11:33:32.278Z,4.03
2018-02-16T11:36:02.922Z,1.50
2018-02-16T11:38:33.557Z,2.28
2018-02-16T11:41:01.887Z,1.52
2018-02-16T11:43:36.026Z,2.20
2018-02-16T11:46:04.395Z,0.70
2018-02-16T11:48:32.144Z,5.15
2018-02-16T11:50:59.734Z,4.70
2018-02-16T11:53:32.153Z,1.33
2018-02-16T11:56:02.621Z,2.20
2018-02-16T11:58:30.195Z,3.62
2018-02-16T12:00:59.181Z,3.05
2018-02-16T12:03:26.834Z,14.13
2018-02-16T12:05:56.005Z,2.58
2018-02-16T12:08:23.946Z,2.40
2018-02-16T12:10:52.868Z,3.00
2018-02-16T12:13:22.218Z,3.20
2018-02-16T12:15:50.258Z,1.48
2018-02-16T12:18:21.791Z,1.62
2018-02-16T12:20:49.373Z,2.55
2018-02-16T12:23:18.507Z,2.33
2018-02-16T12:25:46.352Z,7.12
2018-02-16T12:28:17.613Z,3.00
2018-02-16T12:30:45.634Z,1.40
2018-02-16T12:33:13.240Z,1.52
2018-02-16T12:35:41.635Z,1.60
2018-02-16T12:38:09.276Z,2.10
2018-02-16T12:40:38.858Z,1.70
2018-02-16T12:43:06.432Z,3.10
2018-02-16T12:45:35.970Z,3.57
2018-02-16T12:48:03.582Z,2.40
2018-02-16T12:50:31.112Z,1.63
2018-02-16T12:52:58.692Z,1.50
2018-02-16T12:55:26.227Z,1.13
2018-02-16T12:57:58.482Z,1.30
2018-02-16T13:00:26.095Z,1.20
2018-02-16T13:02:53.622Z,0.80
2018-02-16T13:05:21.493Z,1.33
2018-02-16T13:07:49.284Z,1.00
2018-02-16T13:10:16.794Z,4.32
2018-02-16T13:12:44.323Z,1.63
2018-02-16T13:15:13.694Z,1.60
2018-02-16T13:17:42.620Z,6.87
2018-02-16T13:20:16.524Z,21.53
2018-02-16T13:22:46.967Z,17.05
2018-02-16T13:25:14.661Z,8.77
2018-02-16T13:27:47.156Z,27.05
2018-02-16T13:30:20.065Z,13.00
2018-02-16T13:32:53.718Z,13.10
2018-02-16T13:35:23.107Z,16.67
2018-02-16T13:37:53.545Z,3.63
2018-02-16T13:40:22.704Z,4.18
2018-02-16T13:42:50.950Z,6.00
2018-02-16T13:45:19.970Z,8.82
2018-02-16T13:47:49.686Z,2.03
2018-02-16T13:50:17.225Z,12.05
2018-02-16T13:52:46.481Z,4.82
2018-02-16T13:55:20.468Z,12.60
2018-02-16T13:57:54.169Z,11.40
2018-02-16T14:00:22.532Z,3.17
2018-02-16T14:02:57.252Z,12.95
2018-02-16T14:05:25.804Z,3.23
2018-02-16T14:07:57.786Z,2.23
2018-02-16T14:10:28.720Z,1.48
2018-02-16T14:12:57.313Z,1.67
2018-02-16T14:15:31.456Z,2.40
2018-02-16T14:18:01.217Z,2.65
2018-02-16T14:20:47.746Z,2.50
2018-02-16T14:23:17.507Z,4.97
2018-02-16T14:26:11.715Z,5.32
2018-02-16T14:28:46.286Z,2.70
2018-02-16T14:31:15.802Z,2.63
2018-02-16T14:33:43.829Z,6.03
2018-02-16T14:36:11.426Z,3.87
2018-02-16T14:38:39.247Z,4.20
2018-02-16T14:41:10.083Z,3.50
2018-02-16T14:43:40.343Z,3.90
2018-02-16T14:46:08.077Z,4.23
2018-02-16T14:48:36.398Z,2.90
2018-02-16T14:51:04.061Z,3.10
2018-02-16T14:53:32.538Z,10.10
2018-02-16T14:56:01.403Z,4.03
2018-02-16T14:58:30.962Z,5.20
2018-02-16T15:01:05.082Z,4.50
2018-02-16T15:03:32.638Z,4.70
2018-02-16T15:06:02.639Z,5.17
2018-02-16T15:08:30.749Z,5.30
2018-02-16T15:11:02.693Z,5.23
2018-02-16T15:13:35.474Z,9.77
2018-02-16T15:16:03.948Z,4.93
2018-02-16T15:18:34.890Z,5.83
2018-02-16T15:21:02.414Z,7.10
2018-02-16T15:23:30.450Z,6.40
2018-02-16T15:26:04.356Z,4.13
2018-02-16T15:28:32.956Z,4.67
2018-02-16T15:31:02.961Z,3.80
2018-02-16T15:33:31.799Z,2.80
2018-02-16T15:36:01.560Z,3.03
2018-02-16T15:38:29.959Z,2.90
2018-02-16T15:41:02.261Z,2.77
2018-02-16T15:43:31.495Z,2.30
2018-02-16T15:46:00.665Z,2.87
2018-02-16T15:48:30.728Z,2.87
2018-02-16T15:50:58.292Z,2.50
2018-02-16T15:53:27.925Z,2.30
2018-02-16T15:55:58.406Z,2.73
2018-02-16T15:58:26.698Z,2.17
2018-02-16T16:00:54.221Z,2.73
2018-02-16T16:03:22.414Z,3.05
2018-02-16T16:05:51.302Z,2.45
2018-02-16T16:08:20.225Z,2.50
2018-02-16T16:10:47.795Z,3.00
2018-02-16T16:13:15.531Z,2.42
2018-02-16T16:15:45.371Z,2.90
2018-02-16T16:18:14.227Z,3.00
2018-02-16T16:20:43.817Z,2.43
2018-02-16T16:23:13.533Z,3.30
2018-02-16T16:25:41.164Z,3.80
2018-02-16T16:28:08.685Z,3.90
2018-02-16T16:30:36.935Z,5.10
2018-02-16T16:33:06.305Z,5.23
2018-02-16T16:35:36.552Z,5.60
2018-02-16T16:38:04.132Z,8.53
2018-02-16T16:40:32.947Z,6.47
2018-02-16T16:43:11.514Z,6.20
2018-02-16T16:45:42.639Z,6.80
2018-02-16T16:48:10.215Z,7.70
2018-02-16T16:50:39.496Z,12.18
2018-02-16T16:53:07.453Z,11.98
2018-02-16T16:55:34.966Z,16.33
2018-02-16T16:58:03.416Z,7.20
2018-02-16T17:00:31.771Z,6.40
2018-02-16T17:03:07.614Z,9.57
2018-02-16T17:05:35.807Z,10.23
2018-02-16T17:08:03.977Z,14.90
2018-02-16T17:10:33.778Z,10.75
2018-02-16T17:13:04.893Z,13.02
2018-02-16T17:15:34.978Z,21.42
2018-02-16T17:18:05.549Z,18.05
2018-02-16T17:20:33.114Z,16.45
2018-02-16T17:23:01.477Z,14.50
2018-02-16T17:25:39.084Z,12.80
2018-02-16T17:28:12.117Z,14.07
2018-02-16T17:30:41.026Z,13.45
2018-02-16T17:33:10.543Z,16.40
2018-02-16T17:38:16.575Z,16.35
2018-02-16T17:40:46.004Z,16.17
2018-02-16T17:43:14.369Z,16.50
2018-02-16T17:45:43.252Z,11.63
2018-02-16T17:48:12.032Z,15.93
2018-02-16T17:50:50.058Z,15.80
2018-02-16T17:53:25.486Z,15.55
2018-02-16T17:55:57.549Z,17.30
2018-02-16T17:58:32.382Z,18.20
2018-02-16T18:03:53.906Z,19.20
2018-02-16T18:06:31.816Z,16.50
2018-02-16T18:09:10.359Z,32.83
2018-02-16T18:11:38.765Z,29.00
2018-02-16T18:14:12.656Z,29.77
2018-02-16T18:16:40.319Z,36.53
2018-02-16T18:19:09.244Z,67.82
2018-02-16T18:21:49.136Z,76.50
2018-02-16T18:24:34.098Z,74.55
2018-02-16T18:27:03.250Z,296.55
2018-02-16T18:32:20.189Z,272.33
2018-02-16T18:34:57.562Z,294.83
2018-02-16T18:37:30.445Z,116.30
2018-02-16T18:39:58.769Z,109.45
2018-02-16T18:42:33.250Z,75.70
2018-02-16T18:45:04.271Z,109.60
2018-02-16T18:47:32.783Z,116.95
2018-02-16T18:50:05.118Z,92.95
2018-02-16T18:52:34.107Z,55.38
2018-02-16T18:55:01.662Z,38.45
2018-02-16T18:57:29.311Z,26.73
2018-02-16T19:02:36.119Z,24.15
2018-02-16T19:05:04.563Z,26.70
2018-02-16T19:07:32.163Z,32.90
2018-02-16T19:10:01.392Z,28.52
2018-02-16T19:12:30.445Z,43.33
2018-02-16T19:15:06.792Z,40.20
2018-02-16T19:17:35.112Z,35.03
2018-02-16T19:20:07.801Z,41.65
2018-02-16T19:22:36.456Z,32.67
2018-02-16T19:25:05.242Z,31.40
2018-02-16T19:30:06.493Z,47.38
2018-02-16T19:32:34.460Z,34.85
2018-02-16T19:35:10.416Z,30.60
2018-02-16T19:37:39.249Z,35.22
2018-02-16T19:40:08.062Z,31.60
2018-02-16T19:42:38.212Z,35.72
2018-02-16T19:47:46.388Z,33.60
2018-02-16T19:50:18.017Z,35.25
2018-02-16T19:52:47.067Z,41.85
2018-02-16T19:55:17.212Z,41.15
2018-02-16T19:57:47.507Z,40.10
2018-02-16T20:00:15.156Z,41.63
2018-02-16T20:02:43.829Z,38.65
2018-02-16T20:05:12.548Z,31.92
2018-02-16T20:07:41.683Z,36.75
2018-02-16T20:10:12.373Z,54.35
2018-02-16T20:12:40.056Z,56.75
2018-02-16T20:15:11.047Z,49.58
2018-02-16T20:17:40.344Z,54.88
2018-02-16T20:20:10.511Z,45.83
2018-02-16T20:22:41.049Z,61.15
2018-02-16T20:25:09.651Z,56.58
2018-02-16T20:27:40.139Z,52.80
2018-02-16T20:30:09.648Z,50.88
2018-02-16T20:32:37.300Z,55.12
2018-02-16T20:35:05.421Z,56.53
2018-02-16T20:37:36.630Z,52.17
2018-02-16T20:40:11.867Z,49.58
2018-02-16T20:42:43.115Z,54.42
2018-02-16T20:45:11.523Z,44.20
2018-02-16T20:47:40.128Z,55.42
2018-02-16T20:50:09.304Z,51.63
2018-02-16T20:52:37.501Z,67.30
2018-02-16T20:55:07.453Z,59.33
2018-02-16T20:57:35.515Z,56.53
2018-02-16T21:00:06.047Z,51.92
2018-02-16T21:02:37.440Z,51.50
2018-02-16T21:05:07.592Z,63.15
2018-02-16T21:07:39.902Z,52.00
2018-02-16T21:10:08.466Z,45.42
2018-02-16T21:12:38.698Z,41.13
2018-02-16T21:15:10.365Z,46.55
2018-02-16T21:17:40.225Z,42.38
2018-02-16T21:20:09.474Z,52.20
2018-02-16T21:22:43.858Z,59.15
2018-02-16T21:25:15.464Z,75.78
2018-02-16T21:27:46.946Z,64.72
2018-02-16T21:30:17.240Z,59.92
2018-02-16T21:32:49.457Z,63.35
2018-02-16T21:35:17.992Z,76.18
2018-02-16T21:37:45.888Z,72.07
2018-02-16T21:40:16.402Z,87.60
2018-02-16T21:42:43.986Z,77.25
2018-02-16T21:45:17.952Z,87.10
2018-02-16T21:47:48.743Z,71.35
2018-02-16T21:50:17.194Z,71.12
2018-02-16T21:52:47.471Z,56.78
2018-02-16T21:55:16.762Z,60.75
2018-02-16T21:57:46.220Z,67.90
2018-02-16T22:00:18.724Z,56.70
2018-02-16T22:02:47.973Z,67.25
2018-02-16T22:05:19.051Z,59.00
2018-02-16T22:07:48.732Z,43.47
2018-02-16T22:10:17.334Z,50.10
2018-02-16T22:12:47.817Z,46.22
2018-02-16T22:15:19.946Z,51.40
2018-02-16T22:17:52.602Z,46.08
2018-02-16T22:20:22.475Z,41.90
2018-02-16T22:22:51.590Z,56.33
2018-02-16T22:25:24.443Z,53.25
2018-02-16T22:27:54.027Z,49.25
2018-02-16T22:30:24.128Z,58.97
2018-02-16T22:32:57.148Z,55.03
2018-02-16T22:35:29.462Z,46.63
2018-02-16T22:38:00.663Z,50.60
2018-02-16T22:40:29.056Z,55.25
2018-02-16T22:42:57.729Z,54.63
2018-02-16T22:45:25.279Z,52.50
2018-02-16T22:47:55.055Z,60.95
2018-02-16T22:50:28.988Z,46.60
2018-02-16T22:52:58.068Z,49.33
2018-02-16T22:55:29.416Z,45.45
2018-02-16T22:58:01.500Z,49.17
2018-02-16T23:00:32.564Z,59.17
2018-02-16T23:03:02.070Z,55.55
2018-02-16T23:05:36.190Z,61.95
2018-02-16T23:08:05.588Z,62.00
2018-02-16T23:10:39.633Z,60.10
2018-02-16T23:13:09.332Z,68.70
2018-02-16T23:18:17.306Z,73.37
2018-02-16T23:20:48.839Z,62.17
2018-02-16T23:23:17.976Z,63.75
2018-02-16T23:28:22.877Z,71.43
2018-02-16T23:30:51.152Z,72.85
2018-02-16T23:33:25.527Z,71.45
2018-02-16T23:35:54.557Z,74.97
2018-02-16T23:38:25.158Z,71.85
2018-02-16T23:40:53.650Z,74.12
2018-02-16T23:43:27.941Z,82.62
2018-02-16T23:46:03.513Z,75.85
2018-02-16T23:48:32.841Z,82.72
2018-02-16T23:51:04.761Z,79.37
2018-02-16T23:56:07.178Z,92.95
2018-02-16T23:58:40.735Z,74.53
